sensor_id;sensor_type;location;lat;lon;timestamp;pressure;altitude;pressure_sealevel;temperature;humidity
10988;BME280;5547;42.672;23.230;2023-03-20T00:00:51;93605.91;;;1.45;90.65
10988;BME280;5547;42.672;23.230;2023-03-20T00:03:51;93629.91;;;1.79;89.68
10988;BME280;5547;42.672;23.230;2023-03-20T00:06:52;93601.66;;;1.24;93.32
10988;BME280;5547;42.672;23.230;2023-03-20T00:09:52;93631.38;;;1.60;91.75
10988;BME280;5547;42.672;23.230;2023-03-20T00:12:54;93627.47;;;1.70;89.54
10988;BME280;5547;42.672;23.230;2023-03-20T00:15:56;93595.19;;;1.34;90.47
10988;BME280;5547;42.672;23.230;2023-03-20T00:18:57;93617.06;;;1.26;93.33
10988;BME280;5547;42.672;23.230;2023-03-20T00:21:57;93585.78;;;1.17;92.64
10988;BME280;5547;42.672;23.230;2023-03-20T00:24:58;93598.78;;;1.61;89.00
10988;BME280;5547;42.672;23.230;2023-03-20T00:27:58;93590.19;;;1.29;90.64
10988;BME280;5547;42.672;23.230;2023-03-20T00:30:59;93586.22;;;1.19;92.22
10988;BME280;5547;42.672;23.230;2023-03-20T00:34:02;93608.28;;;1.18;94.05
10988;BME280;5547;42.672;23.230;2023-03-20T00:37:02;93606.91;;;1.24;93.64
10988;BME280;5547;42.672;23.230;2023-03-20T00:40:03;93592.53;;;1.50;91.08
10988;BME280;5547;42.672;23.230;2023-03-20T00:43:03;93556.63;;;1.03;92.61
10988;BME280;5547;42.672;23.230;2023-03-20T00:46:10;93573.78;;;1.16;92.96
10988;BME280;5547;42.672;23.230;2023-03-20T00:49:12;93578.22;;;0.84;95.75
10988;BME280;5547;42.672;23.230;2023-03-20T00:52:12;93562.19;;;1.01;94.09
10988;BME280;5547;42.672;23.230;2023-03-20T00:55:14;93607.75;;;1.13;95.48
10988;BME280;5547;42.672;23.230;2023-03-20T00:58:15;93569.06;;;0.62;98.14
10988;BME280;5547;42.672;23.230;2023-03-20T01:01:15;93587.22;;;0.71;100.00
10988;BME280;5547;42.672;23.230;2023-03-20T01:04:18;93594.44;;;0.90;100.00
10988;BME280;5547;42.672;23.230;2023-03-20T01:07:19;93499.09;;;0.03;100.00
10988;BME280;5547;42.672;23.230;2023-03-20T01:10:20;93563.38;;;0.60;100.00
10988;BME280;5547;42.672;23.230;2023-03-20T01:13:24;93573.75;;;0.84;100.00
10988;BME280;5547;42.672;23.230;2023-03-20T01:16:25;93583.38;;;0.80;100.00
10988;BME280;5547;42.672;23.230;2023-03-20T01:19:26;93579.19;;;1.08;100.00
10988;BME280;5547;42.672;23.230;2023-03-20T01:22:26;93545.44;;;0.74;100.00
10988;BME280;5547;42.672;23.230;2023-03-20T01:25:27;93558.31;;;0.95;99.38
10988;BME280;5547;42.672;23.230;2023-03-20T01:28:29;93573.06;;;0.88;100.00
10988;BME280;5547;42.672;23.230;2023-03-20T01:31:30;93571.47;;;0.83;100.00
10988;BME280;5547;42.672;23.230;2023-03-20T01:34:30;93574.88;;;1.15;96.28
10988;BME280;5547;42.672;23.230;2023-03-20T01:37:31;93580.47;;;1.14;96.06
10988;BME280;5547;42.672;23.230;2023-03-20T01:43:40;93588.31;;;1.14;94.80
10988;BME280;5547;42.672;23.230;2023-03-20T01:46:40;93575.88;;;1.11;94.96
10988;BME280;5547;42.672;23.230;2023-03-20T01:53:24;93534.56;;;0.88;94.74
10988;BME280;5547;42.672;23.230;2023-03-20T01:56:29;93550.94;;;0.85;97.10
10988;BME280;5547;42.672;23.230;2023-03-20T01:59:35;93536.50;;;0.75;95.77
10988;BME280;5547;42.672;23.230;2023-03-20T02:02:37;93583.81;;;0.98;98.64
10988;BME280;5547;42.672;23.230;2023-03-20T02:05:39;93569.25;;;0.69;98.64
10988;BME280;5547;42.672;23.230;2023-03-20T02:08:48;93580.06;;;0.68;100.00
10988;BME280;5547;42.672;23.230;2023-03-20T02:11:49;93575.47;;;0.93;100.00
10988;BME280;5547;42.672;23.230;2023-03-20T02:14:50;93591.41;;;0.88;100.00
10988;BME280;5547;42.672;23.230;2023-03-20T02:17:52;93539.22;;;0.51;100.00
10988;BME280;5547;42.672;23.230;2023-03-20T02:35:02;93555.00;;;-0.02;100.00
10988;BME280;5547;42.672;23.230;2023-03-20T02:38:36;93574.47;;;0.13;100.00
10988;BME280;5547;42.672;23.230;2023-03-20T03:03:56;93519.78;;;-0.33;100.00
10988;BME280;5547;42.672;23.230;2023-03-20T03:07:01;93563.53;;;-0.17;100.00
10988;BME280;5547;42.672;23.230;2023-03-20T03:10:24;93577.97;;;0.05;100.00
10988;BME280;5547;42.672;23.230;2023-03-20T03:13:27;93559.53;;;0.13;100.00
10988;BME280;5547;42.672;23.230;2023-03-20T03:16:32;93552.72;;;-0.04;100.00
10988;BME280;5547;42.672;23.230;2023-03-20T03:19:36;93554.34;;;0.01;100.00
10988;BME280;5547;42.672;23.230;2023-03-20T03:22:37;93569.50;;;-0.17;100.00
10988;BME280;5547;42.672;23.230;2023-03-20T03:25:39;93565.81;;;-0.16;100.00
10988;BME280;5547;42.672;23.230;2023-03-20T03:28:47;93542.75;;;-0.38;100.00
10988;BME280;5547;42.672;23.230;2023-03-20T03:31:50;93571.28;;;-0.33;100.00
10988;BME280;5547;42.672;23.230;2023-03-20T03:34:51;93569.94;;;-0.15;100.00
10988;BME280;5547;42.672;23.230;2023-03-20T03:44:25;93565.41;;;-0.43;100.00
10988;BME280;5547;42.672;23.230;2023-03-20T03:47:33;93548.75;;;-0.63;100.00
10988;BME280;5547;42.672;23.230;2023-03-20T03:50:47;93569.09;;;-0.31;100.00
10988;BME280;5547;42.672;23.230;2023-03-20T03:53:54;93486.56;;;-0.32;100.00
10988;BME280;5547;42.672;23.230;2023-03-20T03:56:58;93517.34;;;-0.13;100.00
10988;BME280;5547;42.672;23.230;2023-03-20T04:00:03;93552.91;;;0.04;100.00
10988;BME280;5547;42.672;23.230;2023-03-20T04:03:06;93549.81;;;0.14;100.00
10988;BME280;5547;42.672;23.230;2023-03-20T04:06:09;93514.38;;;0.01;100.00
10988;BME280;5547;42.672;23.230;2023-03-20T04:09:11;93527.44;;;0.01;100.00
10988;BME280;5547;42.672;23.230;2023-03-20T04:12:32;93549.25;;;-0.08;100.00
10988;BME280;5547;42.672;23.230;2023-03-20T04:15:33;93512.28;;;-0.34;100.00
10988;BME280;5547;42.672;23.230;2023-03-20T04:18:33;93522.72;;;-0.34;100.00
10988;BME280;5547;42.672;23.230;2023-03-20T04:21:34;93520.63;;;-0.29;100.00
10988;BME280;5547;42.672;23.230;2023-03-20T04:24:34;93527.88;;;-0.10;100.00
10988;BME280;5547;42.672;23.230;2023-03-20T04:27:35;93536.09;;;0.17;100.00
10988;BME280;5547;42.672;23.230;2023-03-20T04:30:35;93520.88;;;0.35;100.00
10988;BME280;5547;42.672;23.230;2023-03-20T04:33:35;93539.81;;;0.44;100.00
10988;BME280;5547;42.672;23.230;2023-03-20T04:36:36;93504.38;;;0.18;100.00
10988;BME280;5547;42.672;23.230;2023-03-20T04:39:37;93534.66;;;0.48;100.00
10988;BME280;5547;42.672;23.230;2023-03-20T04:42:37;93558.94;;;0.60;100.00
10988;BME280;5547;42.672;23.230;2023-03-20T04:45:38;93451.38;;;-0.35;100.00
10988;BME280;5547;42.672;23.230;2023-03-20T04:48:39;93516.22;;;0.00;100.00
10988;BME280;5547;42.672;23.230;2023-03-20T04:51:39;93580.91;;;0.44;100.00
10988;BME280;5547;42.672;23.230;2023-03-20T04:54:39;93537.97;;;0.16;100.00
10988;BME280;5547;42.672;23.230;2023-03-20T04:57:40;93583.31;;;0.49;100.00
10988;BME280;5547;42.672;23.230;2023-03-20T05:00:40;93574.19;;;0.87;100.00
10988;BME280;5547;42.672;23.230;2023-03-20T05:03:41;93536.63;;;0.67;100.00
10988;BME280;5547;42.672;23.230;2023-03-20T05:06:41;93577.75;;;1.26;100.00
10988;BME280;5547;42.672;23.230;2023-03-20T05:09:43;93579.09;;;1.36;100.00
10988;BME280;5547;42.672;23.230;2023-03-20T05:12:43;93549.09;;;1.33;100.00
10988;BME280;5547;42.672;23.230;2023-03-20T05:15:44;93579.66;;;1.77;100.00
10988;BME280;5547;42.672;23.230;2023-03-20T05:18:44;93589.72;;;1.91;100.00
10988;BME280;5547;42.672;23.230;2023-03-20T05:21:45;93595.34;;;2.08;100.00
10988;BME280;5547;42.672;23.230;2023-03-20T05:24:45;93598.41;;;2.30;100.00
10988;BME280;5547;42.672;23.230;2023-03-20T05:27:46;93582.94;;;2.25;100.00
10988;BME280;5547;42.672;23.230;2023-03-20T05:30:46;93585.56;;;2.44;100.00
10988;BME280;5547;42.672;23.230;2023-03-20T05:33:46;93592.31;;;2.84;100.00
10988;BME280;5547;42.672;23.230;2023-03-20T05:36:47;93592.75;;;3.09;99.22
10988;BME280;5547;42.672;23.230;2023-03-20T05:39:47;93558.69;;;3.16;96.46
10988;BME280;5547;42.672;23.230;2023-03-20T05:42:48;93570.84;;;3.48;96.26
10988;BME280;5547;42.672;23.230;2023-03-20T05:45:48;93573.53;;;3.74;97.44
10988;BME280;5547;42.672;23.230;2023-03-20T05:48:49;93614.41;;;4.21;96.54
10988;BME280;5547;42.672;23.230;2023-03-20T05:51:49;93610.22;;;4.47;93.73
10988;BME280;5547;42.672;23.230;2023-03-20T05:54:49;93569.13;;;4.42;91.43
10988;BME280;5547;42.672;23.230;2023-03-20T05:57:50;93615.66;;;4.95;88.71
10988;BME280;5547;42.672;23.230;2023-03-20T06:00:50;93567.00;;;4.89;85.58
10988;BME280;5547;42.672;23.230;2023-03-20T06:03:51;93603.53;;;5.69;81.08
10988;BME280;5547;42.672;23.230;2023-03-20T06:06:51;93599.22;;;5.98;79.75
10988;BME280;5547;42.672;23.230;2023-03-20T06:09:51;93572.13;;;6.05;78.46
10988;BME280;5547;42.672;23.230;2023-03-20T06:12:55;93591.00;;;6.07;78.27
10988;BME280;5547;42.672;23.230;2023-03-20T06:15:56;93583.94;;;6.22;78.50
10988;BME280;5547;42.672;23.230;2023-03-20T06:18:56;93605.06;;;6.25;80.88
10988;BME280;5547;42.672;23.230;2023-03-20T06:21:57;93566.78;;;5.98;81.82
10988;BME280;5547;42.672;23.230;2023-03-20T06:24:57;93605.41;;;6.20;81.40
10988;BME280;5547;42.672;23.230;2023-03-20T06:27:58;93565.06;;;5.68;82.92
10988;BME280;5547;42.672;23.230;2023-03-20T06:30:58;93606.69;;;5.89;82.23
10988;BME280;5547;42.672;23.230;2023-03-20T06:33:59;93603.59;;;5.76;81.99
10988;BME280;5547;42.672;23.230;2023-03-20T06:36:59;93490.69;;;5.00;81.88
10988;BME280;5547;42.672;23.230;2023-03-20T06:40:00;93622.47;;;5.78;81.46
10988;BME280;5547;42.672;23.230;2023-03-20T06:43:00;93622.13;;;5.83;81.09
10988;BME280;5547;42.672;23.230;2023-03-20T06:46:01;93588.16;;;5.78;81.72
10988;BME280;5547;42.672;23.230;2023-03-20T06:49:01;93617.19;;;6.37;80.20
10988;BME280;5547;42.672;23.230;2023-03-20T06:52:03;93611.25;;;6.58;78.31
10988;BME280;5547;42.672;23.230;2023-03-20T06:55:03;93555.94;;;6.10;79.91
10988;BME280;5547;42.672;23.230;2023-03-20T06:58:04;93605.66;;;6.70;78.41
10988;BME280;5547;42.672;23.230;2023-03-20T07:01:15;93603.38;;;6.69;77.26
10988;BME280;5547;42.672;23.230;2023-03-20T07:04:18;93610.28;;;6.91;76.44
10988;BME280;5547;42.672;23.230;2023-03-20T07:07:19;93610.78;;;7.40;72.18
10988;BME280;5547;42.672;23.230;2023-03-20T07:10:20;93599.41;;;7.22;74.50
10988;BME280;5547;42.672;23.230;2023-03-20T07:13:20;93607.31;;;7.25;75.69
10988;BME280;5547;42.672;23.230;2023-03-20T07:16:20;93604.34;;;7.55;74.02
10988;BME280;5547;42.672;23.230;2023-03-20T07:19:21;93605.13;;;8.03;70.87
10988;BME280;5547;42.672;23.230;2023-03-20T07:22:27;93603.59;;;7.66;70.89
10988;BME280;5547;42.672;23.230;2023-03-20T07:25:28;93598.31;;;7.62;72.47
10988;BME280;5547;42.672;23.230;2023-03-20T07:28:28;93607.00;;;7.55;73.39
10988;BME280;5547;42.672;23.230;2023-03-20T07:31:28;93583.94;;;7.60;72.13
10988;BME280;5547;42.672;23.230;2023-03-20T07:34:30;93584.69;;;7.92;68.54
10988;BME280;5547;42.672;23.230;2023-03-20T07:37:31;93612.66;;;8.08;69.86
10988;BME280;5547;42.672;23.230;2023-03-20T07:40:31;93611.88;;;8.39;69.55
10988;BME280;5547;42.672;23.230;2023-03-20T07:43:32;93591.00;;;8.63;67.44
10988;BME280;5547;42.672;23.230;2023-03-20T07:46:33;93625.88;;;8.58;69.54
10988;BME280;5547;42.672;23.230;2023-03-20T07:49:33;93623.22;;;8.47;69.95
10988;BME280;5547;42.672;23.230;2023-03-20T07:52:34;93610.34;;;8.53;69.94
10988;BME280;5547;42.672;23.230;2023-03-20T07:55:34;93588.38;;;8.56;67.63
10988;BME280;5547;42.672;23.230;2023-03-20T07:58:35;93575.88;;;8.60;66.14
10988;BME280;5547;42.672;23.230;2023-03-20T08:01:36;93574.66;;;8.75;67.34
10988;BME280;5547;42.672;23.230;2023-03-20T08:04:36;93593.84;;;9.08;66.28
10988;BME280;5547;42.672;23.230;2023-03-20T08:07:36;93618.00;;;9.32;67.52
10988;BME280;5547;42.672;23.230;2023-03-20T08:10:37;93605.56;;;9.14;67.66
10988;BME280;5547;42.672;23.230;2023-03-20T08:13:37;93584.97;;;9.33;64.76
10988;BME280;5547;42.672;23.230;2023-03-20T08:16:38;93574.50;;;9.11;64.56
10988;BME280;5547;42.672;23.230;2023-03-20T08:19:38;93610.78;;;9.32;65.53
10988;BME280;5547;42.672;23.230;2023-03-20T08:22:39;93589.16;;;9.34;65.25
10988;BME280;5547;42.672;23.230;2023-03-20T08:25:39;93617.47;;;9.51;65.90
10988;BME280;5547;42.672;23.230;2023-03-20T08:28:40;93616.63;;;9.65;66.30
10988;BME280;5547;42.672;23.230;2023-03-20T08:31:40;93577.75;;;9.37;66.20
10988;BME280;5547;42.672;23.230;2023-03-20T08:34:40;93624.94;;;9.71;63.62
10988;BME280;5547;42.672;23.230;2023-03-20T08:37:41;93628.00;;;9.69;64.58
10988;BME280;5547;42.672;23.230;2023-03-20T08:40:41;93589.69;;;9.66;64.15
10988;BME280;5547;42.672;23.230;2023-03-20T08:43:42;93619.91;;;9.83;62.65
10988;BME280;5547;42.672;23.230;2023-03-20T08:46:42;93582.78;;;9.73;62.31
10988;BME280;5547;42.672;23.230;2023-03-20T08:49:45;93584.81;;;10.06;63.69
10988;BME280;5547;42.672;23.230;2023-03-20T08:52:46;93615.63;;;10.42;63.12
10988;BME280;5547;42.672;23.230;2023-03-20T08:55:48;93615.75;;;10.69;59.50
10988;BME280;5547;42.672;23.230;2023-03-20T08:58:49;93606.97;;;10.34;60.19
10988;BME280;5547;42.672;23.230;2023-03-20T09:01:52;93615.75;;;10.69;59.83
10988;BME280;5547;42.672;23.230;2023-03-20T09:04:52;93562.97;;;10.29;59.11
10988;BME280;5547;42.672;23.230;2023-03-20T09:07:52;93591.66;;;10.49;60.09
10988;BME280;5547;42.672;23.230;2023-03-20T09:10:53;93612.03;;;10.59;60.86
10988;BME280;5547;42.672;23.230;2023-03-20T09:13:53;93606.69;;;10.63;61.42
10988;BME280;5547;42.672;23.230;2023-03-20T09:16:54;93609.84;;;10.50;60.86
10988;BME280;5547;42.672;23.230;2023-03-20T09:19:55;93593.44;;;10.93;60.45
10988;BME280;5547;42.672;23.230;2023-03-20T09:22:55;93599.69;;;11.38;58.54
10988;BME280;5547;42.672;23.230;2023-03-20T09:25:56;93568.63;;;11.27;58.94
10988;BME280;5547;42.672;23.230;2023-03-20T09:28:57;93602.06;;;11.59;57.02
10988;BME280;5547;42.672;23.230;2023-03-20T09:31:57;93590.13;;;11.44;59.38
10988;BME280;5547;42.672;23.230;2023-03-20T09:34:58;93587.00;;;11.49;56.87
10988;BME280;5547;42.672;23.230;2023-03-20T09:37:58;93522.34;;;11.21;56.77
10988;BME280;5547;42.672;23.230;2023-03-20T09:41:00;93584.34;;;12.00;54.81
10988;BME280;5547;42.672;23.230;2023-03-20T09:50:41;93568.00;;;12.41;53.65
10988;BME280;5547;42.672;23.230;2023-03-20T09:53:52;93485.16;;;11.85;53.63
10988;BME280;5547;42.672;23.230;2023-03-20T09:56:56;93553.06;;;12.24;53.94
10988;BME280;5547;42.672;23.230;2023-03-20T10:00:02;93535.94;;;12.25;53.64
10988;BME280;5547;42.672;23.230;2023-03-20T10:03:05;93539.06;;;12.39;52.07
10988;BME280;5547;42.672;23.230;2023-03-20T10:06:13;93507.94;;;12.73;50.47
10988;BME280;5547;42.672;23.230;2023-03-20T10:09:26;93532.97;;;12.79;51.21
10988;BME280;5547;42.672;23.230;2023-03-20T10:15:53;93533.03;;;12.95;50.11
10988;BME280;5547;42.672;23.230;2023-03-20T10:19:04;93537.22;;;12.96;51.12
10988;BME280;5547;42.672;23.230;2023-03-20T10:23:11;93529.69;;;13.28;48.87
10988;BME280;5547;42.672;23.230;2023-03-20T10:25:50;93498.94;;;13.19;49.82
10988;BME280;5547;42.672;23.230;2023-03-20T10:28:57;93513.94;;;13.66;50.81
10988;BME280;5547;42.672;23.230;2023-03-20T10:35:36;93510.88;;;13.97;47.60
10988;BME280;5547;42.672;23.230;2023-03-20T10:38:41;93511.84;;;14.48;46.63
10988;BME280;5547;42.672;23.230;2023-03-20T10:41:52;93511.31;;;14.83;45.11
10988;BME280;5547;42.672;23.230;2023-03-20T10:45:05;93483.44;;;14.09;47.16
10988;BME280;5547;42.672;23.230;2023-03-20T10:51:21;93385.91;;;13.55;47.17
10988;BME280;5547;42.672;23.230;2023-03-20T10:54:41;93485.28;;;14.12;46.60
10988;BME280;5547;42.672;23.230;2023-03-20T10:57:48;93486.97;;;14.35;45.35
10988;BME280;5547;42.672;23.230;2023-03-20T11:00:53;93481.06;;;14.27;44.25
10988;BME280;5547;42.672;23.230;2023-03-20T11:03:54;93459.03;;;14.65;44.50
10988;BME280;5547;42.672;23.230;2023-03-20T11:10:12;93481.63;;;14.77;43.01
10988;BME280;5547;42.672;23.230;2023-03-20T11:13:25;93465.69;;;14.86;43.90
10988;BME280;5547;42.672;23.230;2023-03-20T11:16:30;93462.56;;;14.88;43.68
10988;BME280;5547;42.672;23.230;2023-03-20T11:19:35;93462.25;;;15.24;42.63
10988;BME280;5547;42.672;23.230;2023-03-20T11:22:36;93459.25;;;14.97;43.94
10988;BME280;5547;42.672;23.230;2023-03-20T11:25:57;93427.13;;;15.09;42.38
10988;BME280;5547;42.672;23.230;2023-03-20T11:28:58;93442.75;;;15.37;42.48
10988;BME280;5547;42.672;23.230;2023-03-20T11:35:29;93436.09;;;15.89;40.32
10988;BME280;5547;42.672;23.230;2023-03-20T11:38:30;93441.47;;;15.89;40.78
10988;BME280;5547;42.672;23.230;2023-03-20T11:41:31;93410.47;;;15.88;41.10
10988;BME280;5547;42.672;23.230;2023-03-20T11:44:34;93425.31;;;16.24;38.93
10988;BME280;5547;42.672;23.230;2023-03-20T11:47:35;93424.38;;;16.39;39.01
10988;BME280;5547;42.672;23.230;2023-03-20T11:50:41;93373.09;;;16.15;37.71
10988;BME280;5547;42.672;23.230;2023-03-20T11:56:55;93387.94;;;16.60;37.78
10988;BME280;5547;42.672;23.230;2023-03-20T11:59:55;93391.09;;;16.37;38.67
10988;BME280;5547;42.672;23.230;2023-03-20T12:02:56;93397.69;;;16.67;37.30
10988;BME280;5547;42.672;23.230;2023-03-20T12:05:59;93378.09;;;16.57;36.57
10988;BME280;5547;42.672;23.230;2023-03-20T12:09:04;93396.41;;;16.81;37.86
10988;BME280;5547;42.672;23.230;2023-03-20T12:15:37;93387.03;;;16.86;36.65
10988;BME280;5547;42.672;23.230;2023-03-20T12:18:49;93381.34;;;17.24;35.57
10988;BME280;5547;42.672;23.230;2023-03-20T12:22:00;93372.09;;;17.34;34.53
10988;BME280;5547;42.672;23.230;2023-03-20T12:25:28;93386.88;;;17.39;34.75
10988;BME280;5547;42.672;23.230;2023-03-20T12:31:55;93364.97;;;16.91;33.94
10988;BME280;5547;42.672;23.230;2023-03-20T12:35:03;93367.63;;;17.50;34.31
10988;BME280;5547;42.672;23.230;2023-03-20T12:38:22;93349.69;;;17.37;32.62
10988;BME280;5547;42.672;23.230;2023-03-20T12:41:28;93356.72;;;17.62;33.08
10988;BME280;5547;42.672;23.230;2023-03-20T12:47:52;93349.56;;;17.87;32.23
10988;BME280;5547;42.672;23.230;2023-03-20T12:51:07;93348.22;;;17.92;31.33
10988;BME280;5547;42.672;23.230;2023-03-20T13:00:42;93334.88;;;17.23;33.85
10988;BME280;5547;42.672;23.230;2023-03-20T13:11:03;93329.41;;;17.82;29.85
10988;BME280;5547;42.672;23.230;2023-03-20T13:27:39;93303.53;;;17.85;29.96
10988;BME280;5547;42.672;23.230;2023-03-20T13:34:18;93299.94;;;17.88;29.15
10988;BME280;5547;42.672;23.230;2023-03-20T13:37:27;93298.75;;;17.80;28.20
10988;BME280;5547;42.672;23.230;2023-03-20T13:40:39;93294.13;;;17.71;29.24
10988;BME280;5547;42.672;23.230;2023-03-20T13:43:50;93287.25;;;17.61;29.44
10988;BME280;5547;42.672;23.230;2023-03-20T13:47:09;93259.56;;;17.97;27.81
10988;BME280;5547;42.672;23.230;2023-03-20T13:53:33;93290.66;;;18.08;28.17
10988;BME280;5547;42.672;23.230;2023-03-20T14:03:43;93266.44;;;18.08;27.77
10988;BME280;5547;42.672;23.230;2023-03-20T14:06:51;93268.38;;;18.07;27.06
10988;BME280;5547;42.672;23.230;2023-03-20T14:09:53;93238.78;;;18.40;26.78
10988;BME280;5547;42.672;23.230;2023-03-20T14:12:57;93257.22;;;18.33;25.75
10988;BME280;5547;42.672;23.230;2023-03-20T14:16:01;93253.66;;;18.26;26.56
10988;BME280;5547;42.672;23.230;2023-03-20T14:19:06;93238.88;;;18.46;26.01
10988;BME280;5547;42.672;23.230;2023-03-20T14:22:14;93241.09;;;18.23;26.05
10988;BME280;5547;42.672;23.230;2023-03-20T14:25:18;93254.94;;;17.98;27.04
10988;BME280;5547;42.672;23.230;2023-03-20T14:31:31;93249.38;;;18.01;26.87
10988;BME280;5547;42.672;23.230;2023-03-20T14:34:51;93254.78;;;18.44;25.43
10988;BME280;5547;42.672;23.230;2023-03-20T14:48:02;93238.09;;;17.42;26.95
10988;BME280;5547;42.672;23.230;2023-03-20T14:57:32;93243.22;;;17.21;26.87
10988;BME280;5547;42.672;23.230;2023-03-20T15:00:40;93233.63;;;16.93;28.60
10988;BME280;5547;42.672;23.230;2023-03-20T15:03:48;93174.72;;;16.30;29.73
10988;BME280;5547;42.672;23.230;2023-03-20T15:07:14;93205.16;;;16.27;29.50
10988;BME280;5547;42.672;23.230;2023-03-20T15:10:15;93191.59;;;15.90;30.20
10988;BME280;5547;42.672;23.230;2023-03-20T15:13:16;93188.84;;;15.72;31.69
10988;BME280;5547;42.672;23.230;2023-03-20T15:16:25;93212.38;;;15.77;31.90
10988;BME280;5547;42.672;23.230;2023-03-20T15:19:27;93233.41;;;15.79;32.75
10988;BME280;5547;42.672;23.230;2023-03-20T15:22:27;93230.53;;;15.73;33.16
10988;BME280;5547;42.672;23.230;2023-03-20T15:25:41;93221.97;;;15.65;34.10
10988;BME280;5547;42.672;23.230;2023-03-20T15:28:45;93221.13;;;15.46;37.06
10988;BME280;5547;42.672;23.230;2023-03-20T15:31:50;93216.03;;;15.39;37.50
10988;BME280;5547;42.672;23.230;2023-03-20T15:34:53;93223.00;;;15.37;38.25
10988;BME280;5547;42.672;23.230;2023-03-20T15:37:56;93192.81;;;15.01;38.87
10988;BME280;5547;42.672;23.230;2023-03-20T15:40:57;93218.44;;;15.02;41.05
10988;BME280;5547;42.672;23.230;2023-03-20T15:44:20;93225.34;;;14.90;40.82
10988;BME280;5547;42.672;23.230;2023-03-20T15:47:22;93210.16;;;14.75;42.48
10988;BME280;5547;42.672;23.230;2023-03-20T15:50:23;93222.28;;;14.66;43.50
10988;BME280;5547;42.672;23.230;2023-03-20T15:53:33;93181.56;;;14.24;42.18
10988;BME280;5547;42.672;23.230;2023-03-20T15:56:35;93212.28;;;14.19;43.40
10988;BME280;5547;42.672;23.230;2023-03-20T15:59:42;93219.00;;;13.98;45.13
10988;BME280;5547;42.672;23.230;2023-03-20T16:02:44;93216.75;;;13.71;45.83
10988;BME280;5547;42.672;23.230;2023-03-20T16:05:47;93214.09;;;13.29;46.88
10988;BME280;5547;42.672;23.230;2023-03-20T16:08:59;93220.25;;;12.97;47.68
10988;BME280;5547;42.672;23.230;2023-03-20T16:12:01;93214.22;;;12.64;48.89
10988;BME280;5547;42.672;23.230;2023-03-20T16:15:02;93224.50;;;12.49;48.06
10988;BME280;5547;42.672;23.230;2023-03-20T16:18:05;93224.84;;;12.34;48.10
10988;BME280;5547;42.672;23.230;2023-03-20T16:21:16;93221.06;;;11.99;49.10
10988;BME280;5547;42.672;23.230;2023-03-20T16:24:38;93228.66;;;11.81;49.81
10988;BME280;5547;42.672;23.230;2023-03-20T16:27:39;93230.69;;;11.56;50.57
10988;BME280;5547;42.672;23.230;2023-03-20T16:30:40;93222.50;;;11.27;51.92
10988;BME280;5547;42.672;23.230;2023-03-20T16:33:42;93232.56;;;11.20;51.74
10988;BME280;5547;42.672;23.230;2023-03-20T16:36:49;93210.78;;;11.05;51.45
10988;BME280;5547;42.672;23.230;2023-03-20T16:43:31;93229.56;;;10.98;51.08
10988;BME280;5547;42.672;23.230;2023-03-20T16:46:31;93223.78;;;10.79;51.86
10988;BME280;5547;42.672;23.230;2023-03-20T16:53:01;93228.84;;;10.50;53.56
10988;BME280;5547;42.672;23.230;2023-03-20T16:56:02;93232.00;;;10.41;53.31
10988;BME280;5547;42.672;23.230;2023-03-20T16:59:16;93209.84;;;10.24;53.90
10988;BME280;5547;42.672;23.230;2023-03-20T17:02:28;93235.13;;;10.36;53.10
10988;BME280;5547;42.672;23.230;2023-03-20T17:05:41;93234.97;;;10.20;54.11
10988;BME280;5547;42.672;23.230;2023-03-20T17:08:53;93233.03;;;10.24;53.88
10988;BME280;5547;42.672;23.230;2023-03-20T17:12:16;93231.16;;;10.21;52.71
10988;BME280;5547;42.672;23.230;2023-03-20T17:15:20;93226.53;;;10.25;53.14
10988;BME280;5547;42.672;23.230;2023-03-20T17:18:20;93156.13;;;9.62;53.17
10988;BME280;5547;42.672;23.230;2023-03-20T17:21:21;93226.16;;;10.26;50.83
10988;BME280;5547;42.672;23.230;2023-03-20T17:24:21;93182.41;;;9.80;51.42
10988;BME280;5547;42.672;23.230;2023-03-20T17:27:22;93200.75;;;9.71;52.02
10988;BME280;5547;42.672;23.230;2023-03-20T17:30:23;93214.44;;;9.70;52.33
10988;BME280;5547;42.672;23.230;2023-03-20T17:33:25;93229.56;;;9.73;52.03
10988;BME280;5547;42.672;23.230;2023-03-20T17:36:30;93226.97;;;9.69;51.50
10988;BME280;5547;42.672;23.230;2023-03-20T17:39:31;93236.78;;;9.72;50.79
10988;BME280;5547;42.672;23.230;2023-03-20T17:42:32;93191.94;;;9.78;47.55
10988;BME280;5547;42.672;23.230;2023-03-20T17:45:33;93213.63;;;10.50;45.10
10988;BME280;5547;42.672;23.230;2023-03-20T17:48:33;93255.81;;;10.96;44.11
10988;BME280;5547;42.672;23.230;2023-03-20T17:51:33;93259.75;;;10.87;46.17
10988;BME280;5547;42.672;23.230;2023-03-20T17:54:34;93223.25;;;10.44;46.43
10988;BME280;5547;42.672;23.230;2023-03-20T17:57:38;93266.06;;;10.73;47.21
10988;BME280;5547;42.672;23.230;2023-03-20T18:00:39;93238.72;;;10.49;47.72
10988;BME280;5547;42.672;23.230;2023-03-20T18:03:40;93211.28;;;10.05;48.81
10988;BME280;5547;42.672;23.230;2023-03-20T18:06:40;93228.72;;;10.06;49.90
10988;BME280;5547;42.672;23.230;2023-03-20T18:09:41;93223.72;;;10.12;49.05
10988;BME280;5547;42.672;23.230;2023-03-20T18:12:42;93212.38;;;10.08;48.85
10988;BME280;5547;42.672;23.230;2023-03-20T18:15:43;93257.09;;;10.40;49.35
10988;BME280;5547;42.672;23.230;2023-03-20T18:18:44;93262.88;;;10.35;48.32
10988;BME280;5547;42.672;23.230;2023-03-20T18:21:45;93232.66;;;10.22;48.46
10988;BME280;5547;42.672;23.230;2023-03-20T18:24:45;93264.03;;;10.34;48.75
10988;BME280;5547;42.672;23.230;2023-03-20T18:27:46;93271.19;;;10.37;49.96
10988;BME280;5547;42.672;23.230;2023-03-20T18:30:46;93257.72;;;10.21;49.14
10988;BME280;5547;42.672;23.230;2023-03-20T18:33:49;93262.78;;;10.42;48.81
10988;BME280;5547;42.672;23.230;2023-03-20T18:36:50;93267.16;;;10.29;49.43
10988;BME280;5547;42.672;23.230;2023-03-20T18:39:50;93107.41;;;9.18;49.50
10988;BME280;5547;42.672;23.230;2023-03-20T18:42:52;93257.72;;;10.21;49.56
10988;BME280;5547;42.672;23.230;2023-03-20T18:45:53;93271.47;;;10.16;50.86
10988;BME280;5547;42.672;23.230;2023-03-20T18:48:54;93271.78;;;9.94;51.69